Time;durP1;ratioP1;P1;durP2;ratioP2;P2;SDS_P1;SDS_P2;PMS_P1;PMS_P2;Temp;Humidity;BMP_temperature;BMP_pressure;BME280_temperature;BME280_humidity;BME280_pressure;Samples;Min_cycle;Max_cycle;Signal;HPM_P1;HPM_P2
2022/02/01 00:03:08;;;;;;;2.85;2.65;;;;;;;;;;4825950;29;20061;-77
2022/02/01 00:08:35;;;;;;;8.88;2.78;;;;;;;;;;4856985;29;20060;-77
2022/02/01 00:11:18;;;;;;;1.98;1.88;;;;;;;;;;4858727;29;20058;-77
2022/02/01 00:35:50;;;;;;;2.20;2.00;;;;;;;;;;4821675;29;20419;-77
2022/02/01 00:38:23;;;;;;;2.22;2.13;;;;;;;;;;4823926;29;20425;-77
2022/02/01 00:40:57;;;;;;;2.80;2.60;;;;;;;;;;4823912;29;20070;-77
2022/02/01 00:43:25;;;;;;;2.45;2.30;;;;;;;;;;4823266;29;20062;-78
2022/02/01 00:45:53;;;;;;;6.55;3.05;;;;;;;;;;4824459;29;20061;-78
2022/02/01 00:48:21;;;;;;;2.10;2.00;;;;;;;;;;4823651;29;20054;-77
2022/02/01 00:50:49;;;;;;;2.90;2.53;;;;;;;;;;4807924;29;20569;-78
2022/02/01 00:53:21;;;;;;;3.55;3.00;;;;;;;;;;4823518;29;20054;-78
2022/02/01 00:55:49;;;;;;;3.33;3.00;;;;;;;;;;4827287;29;20059;-78
2022/02/01 00:58:17;;;;;;;12.13;3.88;;;;;;;;;;4859696;29;20057;-77
2022/02/01 01:00:45;;;;;;;2.88;2.67;;;;;;;;;;4860442;29;20056;-77
2022/02/01 01:03:14;;;;;;;2.75;2.65;;;;;;;;;;4860571;29;20065;-77
2022/02/01 01:05:42;;;;;;;2.58;2.47;;;;;;;;;;4860521;29;20808;-77
2022/02/01 01:08:11;;;;;;;3.03;2.83;;;;;;;;;;4852927;29;20058;-79
2022/02/01 01:10:40;;;;;;;2.38;2.28;;;;;;;;;;4826050;29;20061;-78
2022/02/01 01:15:39;;;;;;;2.25;2.15;;;;;;;;;;4825276;29;20054;-77
2022/02/01 01:46:01;;;;;;;1.85;1.75;;;;;;;;;;4841606;29;20041;-77
2022/02/01 01:54:03;;;;;;;1.30;1.30;;;;;;;;;;4842056;29;20049;-82
2022/02/01 01:56:35;;;;;;;1.50;1.40;;;;;;;;;;4850349;29;20052;-78
2022/02/01 01:59:05;;;;;;;2.88;1.60;;;;;;;;;;4877283;29;20053;-77
2022/02/01 02:01:34;;;;;;;1.48;1.48;;;;;;;;;;4860763;29;20049;-78
2022/02/01 02:04:02;;;;;;;1.27;1.27;;;;;;;;;;4877627;29;20053;-78
2022/02/01 02:06:34;;;;;;;1.00;1.00;;;;;;;;;;4878108;29;20056;-77
2022/02/01 02:09:04;;;;;;;1.98;1.88;;;;;;;;;;4877118;29;20045;-77
2022/02/01 02:14:20;;;;;;;1.92;1.83;;;;;;;;;;4877053;29;20483;-78
2022/02/01 02:16:51;;;;;;;2.70;2.50;;;;;;;;;;4877933;29;20056;-77
2022/02/01 02:19:20;;;;;;;1.85;1.75;;;;;;;;;;4877983;29;20053;-77
2022/02/01 02:21:49;;;;;;;2.40;2.20;;;;;;;;;;4877556;29;20068;-78
2022/02/01 02:24:17;;;;;;;2.75;2.58;;;;;;;;;;4867135;29;20053;-78
2022/02/01 02:26:48;;;;;;;2.38;2.28;;;;;;;;;;4859341;29;20708;-77
2022/02/01 02:29:16;;;;;;;2.45;2.20;;;;;;;;;;4858237;29;20416;-77
2022/02/01 02:31:45;;;;;;;2.15;2.05;;;;;;;;;;4824218;29;20054;-77
2022/02/01 02:34:14;;;;;;;2.58;2.38;;;;;;;;;;4805793;29;20507;-77
2022/02/01 02:36:51;;;;;;;2.15;2.05;;;;;;;;;;4822293;29;20055;-78
2022/02/01 02:47:22;;;;;;;3.10;2.83;;;;;;;;;;4822311;29;20489;-78
2022/02/01 02:49:50;;;;;;;2.65;2.50;;;;;;;;;;4821516;29;20050;-77
2022/02/01 02:52:18;;;;;;;2.65;2.55;;;;;;;;;;4821967;29;20058;-77
2022/02/01 02:54:46;;;;;;;2.42;2.33;;;;;;;;;;4822396;29;20067;-77
2022/02/01 02:57:14;;;;;;;3.10;2.90;;;;;;;;;;4829673;29;20053;-78
2022/02/01 02:59:42;;;;;;;3.47;3.17;;;;;;;;;;4857635;29;20045;-77
2022/02/01 03:02:10;;;;;;;3.10;2.90;;;;;;;;;;4858733;29;20056;-77
2022/02/01 03:04:38;;;;;;;3.47;3.17;;;;;;;;;;4858461;29;20049;-78
2022/02/01 03:07:07;;;;;;;2.97;2.78;;;;;;;;;;4842302;29;20053;-77
2022/02/01 03:09:41;;;;;;;4.00;2.85;;;;;;;;;;4823383;29;20058;-77
2022/02/01 03:12:13;;;;;;;3.58;3.38;;;;;;;;;;4805403;29;20442;-78
2022/02/01 03:15:08;;;;;;;4.03;3.65;;;;;;;;;;4821321;29;20089;-78
2022/02/01 03:20:33;;;;;;;2.83;2.63;;;;;;;;;;4756541;29;20040;-77
2022/02/01 03:23:01;;;;;;;3.88;3.45;;;;;;;;;;4821735;29;20050;-77
2022/02/01 03:25:29;;;;;;;4.10;3.80;;;;;;;;;;4821585;29;20058;-78
2022/02/01 03:27:57;;;;;;;3.50;3.20;;;;;;;;;;4820873;29;20046;-77
2022/02/01 03:30:25;;;;;;;3.90;3.70;;;;;;;;;;4821742;29;20054;-78
2022/02/01 03:32:54;;;;;;;4.75;3.78;;;;;;;;;;4821435;29;20062;-81
2022/02/01 03:35:24;;;;;;;4.30;3.90;;;;;;;;;;4789955;29;20617;-80
2022/02/01 03:37:52;;;;;;;3.40;2.88;;;;;;;;;;4817025;29;20053;-78
2022/02/01 03:40:21;;;;;;;2.85;2.65;;;;;;;;;;4804672;29;20057;-78
2022/02/01 03:42:49;;;;;;;3.17;2.90;;;;;;;;;;4821557;29;20067;-77
2022/02/01 03:45:17;;;;;;;2.38;2.28;;;;;;;;;;4823223;29;20417;-79
2022/02/01 03:47:45;;;;;;;2.67;2.55;;;;;;;;;;4838227;29;20042;-77
2022/02/01 03:50:13;;;;;;;2.03;1.92;;;;;;;;;;4823414;29;20049;-78
2022/02/01 03:52:41;;;;;;;1.77;1.67;;;;;;;;;;4834224;29;20057;-77
2022/02/01 03:55:10;;;;;;;1.73;1.73;;;;;;;;;;4839651;29;20057;-78
2022/02/01 03:57:38;;;;;;;2.13;1.88;;;;;;;;;;4854975;29;20049;-77
2022/02/01 04:00:06;;;;;;;1.30;1.30;;;;;;;;;;4856907;29;20056;-78
2022/02/01 04:02:39;;;;;;;1.90;1.80;;;;;;;;;;4858071;29;20056;-77
2022/02/01 04:05:07;;;;;;;1.80;1.70;;;;;;;;;;4855020;29;20057;-77
2022/02/01 04:07:36;;;;;;;1.25;1.25;;;;;;;;;;4830023;29;20057;-76
2022/02/01 04:10:04;;;;;;;1.95;1.85;;;;;;;;;;4831337;29;20053;-77
2022/02/01 04:12:32;;;;;;;1.30;1.30;;;;;;;;;;4798996;29;20054;-76
2022/02/01 04:15:00;;;;;;;4.00;3.70;;;;;;;;;;4835799;29;20077;-77
2022/02/01 04:17:28;;;;;;;2.72;2.60;;;;;;;;;;4828420;29;20046;-76
2022/02/01 04:19:56;;;;;;;3.60;3.35;;;;;;;;;;4820632;29;20050;-77
2022/02/01 04:22:24;;;;;;;5.95;4.50;;;;;;;;;;4805162;29;20050;-78
2022/02/01 04:24:52;;;;;;;4.43;2.58;;;;;;;;;;4820531;29;20050;-77
2022/02/01 04:29:55;;;;;;;4.60;4.25;;;;;;;;;;4822482;29;20295;-77
2022/02/01 04:32:23;;;;;;;4.47;4.07;;;;;;;;;;4838828;29;20050;-77
2022/02/01 04:34:59;;;;;;;3.47;3.17;;;;;;;;;;4839505;29;20069;-77
2022/02/01 04:37:27;;;;;;;6.07;4.75;;;;;;;;;;4839060;29;20061;-77
2022/02/01 04:39:56;;;;;;;3.38;3.08;;;;;;;;;;4807013;29;20492;-77
2022/02/01 04:42:27;;;;;;;3.83;3.47;;;;;;;;;;4822985;29;20049;-77
2022/02/01 04:44:55;;;;;;;4.27;3.97;;;;;;;;;;4838341;29;20050;-78
2022/02/01 04:47:28;;;;;;;4.10;3.70;;;;;;;;;;4823171;29;20299;-77
2022/02/01 04:49:57;;;;;;;4.68;3.60;;;;;;;;;;4838068;29;20050;-77
2022/02/01 04:52:25;;;;;;;2.03;1.90;;;;;;;;;;4822355;29;20054;-77
2022/02/01 04:54:53;;;;;;;4.90;4.50;;;;;;;;;;4822092;29;20500;-77
2022/02/01 04:57:21;;;;;;;4.80;4.40;;;;;;;;;;4836358;29;20042;-76
2022/02/01 04:59:49;;;;;;;4.68;4.03;;;;;;;;;;4834045;29;20825;-82
2022/02/01 05:02:17;;;;;;;3.88;3.58;;;;;;;;;;4842497;29;20061;-78
2022/02/01 05:04:46;;;;;;;11.00;3.55;;;;;;;;;;4825034;29;20404;-77
2022/02/01 05:07:14;;;;;;;2.95;2.75;;;;;;;;;;4842331;29;20057;-78
2022/02/01 05:09:42;;;;;;;3.17;2.70;;;;;;;;;;4809631;29;20053;-78
2022/02/01 05:12:10;;;;;;;1.75;1.65;;;;;;;;;;4842090;29;20066;-78
2022/02/01 05:14:39;;;;;;;3.25;3.05;;;;;;;;;;4841528;29;20070;-78
2022/02/01 05:17:07;;;;;;;2.53;2.38;;;;;;;;;;4841737;29;20062;-77
2022/02/01 05:19:57;;;;;;;2.78;2.58;;;;;;;;;;4824923;29;20054;-78
2022/02/01 05:22:30;;;;;;;2.60;2.50;;;;;;;;;;4842354;29;20504;-78
2022/02/01 05:24:58;;;;;;;3.28;3.00;;;;;;;;;;4824637;29;20049;-78
2022/02/01 05:27:28;;;;;;;2.10;2.00;;;;;;;;;;4828011;29;20496;-78
2022/02/01 05:29:57;;;;;;;2.60;2.47;;;;;;;;;;4842938;29;20046;-78
2022/02/01 05:32:25;;;;;;;3.63;3.42;;;;;;;;;;4860147;29;20049;-77
2022/02/01 05:34:54;;;;;;;4.00;3.03;;;;;;;;;;4860354;29;20041;-78
2022/02/01 05:37:22;;;;;;;8.80;3.47;;;;;;;;;;4859822;29;20053;-77
2022/02/01 05:39:50;;;;;;;3.03;2.83;;;;;;;;;;4843039;29;20041;-78
2022/02/01 05:42:25;;;;;;;3.97;3.05;;;;;;;;;;4843410;29;20056;-78
2022/02/01 05:44:53;;;;;;;3.78;3.05;;;;;;;;;;4859060;29;20046;-77
2022/02/01 05:47:21;;;;;;;7.60;5.13;;;;;;;;;;4860198;29;20057;-78
2022/02/01 05:49:49;;;;;;;4.13;3.20;;;;;;;;;;4859201;29;20073;-77
2022/02/01 05:52:17;;;;;;;6.38;5.78;;;;;;;;;;4850142;29;20053;-78
2022/02/01 05:54:45;;;;;;;6.15;4.65;;;;;;;;;;4824955;29;20058;-77
2022/02/01 05:57:14;;;;;;;4.53;4.20;;;;;;;;;;4866049;29;20057;-78
2022/02/01 05:59:42;;;;;;;7.68;4.47;;;;;;;;;;4877356;29;20052;-77
2022/02/01 06:02:10;;;;;;;5.90;4.93;;;;;;;;;;4878367;29;20400;-77
2022/02/01 06:04:39;;;;;;;8.38;5.63;;;;;;;;;;4878156;29;20468;-77
2022/02/01 06:07:06;;;;;;;7.38;6.55;;;;;;;;;;4848117;29;20465;-78
2022/02/01 06:09:34;;;;;;;8.07;5.22;;;;;;;;;;4833846;29;20057;-77
2022/02/01 06:12:02;;;;;;;8.65;7.30;;;;;;;;;;4823760;29;20061;-82
2022/02/01 06:14:31;;;;;;;8.80;6.18;;;;;;;;;;4809284;29;20053;-82
2022/02/01 06:16:59;;;;;;;8.90;7.10;;;;;;;;;;4802738;29;20045;-79
2022/02/01 06:19:28;;;;;;;8.07;5.82;;;;;;;;;;4837669;29;20053;-78
2022/02/01 06:21:55;;;;;;;7.85;6.00;;;;;;;;;;4840771;29;20054;-78
2022/02/01 06:24:24;;;;;;;10.70;7.32;;;;;;;;;;4829733;29;20054;-78
2022/02/01 06:26:52;;;;;;;7.57;5.90;;;;;;;;;;4822672;29;20050;-78
2022/02/01 06:29:20;;;;;;;10.25;6.43;;;;;;;;;;4839619;29;20061;-78
2022/02/01 06:31:48;;;;;;;9.65;6.03;;;;;;;;;;4822817;29;20046;-78
2022/02/01 06:34:16;;;;;;;8.23;5.38;;;;;;;;;;4822821;29;20050;-78
2022/02/01 06:36:44;;;;;;;12.55;9.52;;;;;;;;;;4822133;29;20059;-78
2022/02/01 06:39:12;;;;;;;10.60;6.22;;;;;;;;;;4822371;29;20066;-78
2022/02/01 06:41:40;;;;;;;6.72;5.88;;;;;;;;;;4821981;29;20501;-78
2022/02/01 06:44:08;;;;;;;8.25;4.43;;;;;;;;;;4821373;29;20051;-78
2022/02/01 06:46:36;;;;;;;7.72;5.45;;;;;;;;;;4822648;29;20059;-78
2022/02/01 06:49:09;;;;;;;13.60;7.63;;;;;;;;;;4821372;29;20066;-78
2022/02/01 06:51:42;;;;;;;14.15;7.95;;;;;;;;;;4821909;29;20077;-78
2022/02/01 06:54:10;;;;;;;7.90;6.82;;;;;;;;;;4822225;29;20526;-78
2022/02/01 06:56:38;;;;;;;8.00;5.50;;;;;;;;;;4836373;29;20049;-78
2022/02/01 06:59:07;;;;;;;7.55;5.90;;;;;;;;;;4832057;29;20060;-78
2022/02/01 07:01:35;;;;;;;8.52;6.70;;;;;;;;;;4847066;29;20046;-78
2022/02/01 07:04:03;;;;;;;13.38;7.25;;;;;;;;;;4832473;29;20504;-78
2022/02/01 07:06:33;;;;;;;5.88;5.15;;;;;;;;;;4844727;29;20045;-78
2022/02/01 07:09:03;;;;;;;8.38;4.13;;;;;;;;;;4830218;29;20057;-78
2022/02/01 07:11:31;;;;;;;10.50;7.60;;;;;;;;;;4829661;29;20057;-78
2022/02/01 07:14:00;;;;;;;10.13;5.88;;;;;;;;;;4824322;29;20061;-78
2022/02/01 07:16:29;;;;;;;7.68;5.65;;;;;;;;;;4841922;29;20045;-77
2022/02/01 07:18:57;;;;;;;11.93;5.38;;;;;;;;;;4833106;29;20057;-78
2022/02/01 07:21:28;;;;;;;8.30;6.07;;;;;;;;;;4847126;29;20058;-78
2022/02/01 07:23:56;;;;;;;7.65;5.10;;;;;;;;;;4845120;29;20053;-78
2022/02/01 07:26:24;;;;;;;15.32;6.93;;;;;;;;;;4822061;29;20057;-78
2022/02/01 07:28:52;;;;;;;9.18;6.53;;;;;;;;;;4856737;29;20049;-78
2022/02/01 07:31:20;;;;;;;9.32;7.38;;;;;;;;;;4858500;29;20061;-78
2022/02/01 07:33:48;;;;;;;6.28;5.22;;;;;;;;;;4841059;29;20400;-78
2022/02/01 07:36:17;;;;;;;8.13;7.32;;;;;;;;;;4841591;29;20049;-78
2022/02/01 07:38:45;;;;;;;9.63;6.32;;;;;;;;;;4858056;29;20046;-78
2022/02/01 07:41:13;;;;;;;7.47;6.85;;;;;;;;;;4841211;29;20053;-78
2022/02/01 07:43:42;;;;;;;7.72;5.93;;;;;;;;;;4857261;29;20389;-78
2022/02/01 07:46:14;;;;;;;8.93;6.43;;;;;;;;;;4858429;29;20061;-77
2022/02/01 07:48:42;;;;;;;7.60;6.45;;;;;;;;;;4841230;29;20046;-78
2022/02/01 07:51:13;;;;;;;7.60;6.00;;;;;;;;;;4840142;29;20385;-78
2022/02/01 07:53:41;;;;;;;6.32;5.63;;;;;;;;;;4804749;29;20282;-78
2022/02/01 07:56:09;;;;;;;5.40;4.90;;;;;;;;;;4838749;29;20061;-78
2022/02/01 07:58:37;;;;;;;7.93;7.13;;;;;;;;;;4846503;29;20050;-77
2022/02/01 08:01:06;;;;;;;5.75;5.25;;;;;;;;;;4834661;29;20057;-78
2022/02/01 08:03:34;;;;;;;8.02;6.40;;;;;;;;;;4854951;29;20408;-78
2022/02/01 08:06:02;;;;;;;7.47;5.40;;;;;;;;;;4822913;29;20069;-78
2022/02/01 08:08:30;;;;;;;7.00;5.07;;;;;;;;;;4837987;29;20042;-78
2022/02/01 08:11:00;;;;;;;5.78;5.20;;;;;;;;;;4823011;29;20053;-78
2022/02/01 08:14:19;;;;;;;10.23;6.53;;;;;;;;;;4823439;29;20059;-78
2022/02/01 08:16:37;;;;;;;7.57;5.65;;;;;;;;;;4836464;29;20062;-86
2022/02/01 08:19:16;;;;;;;7.10;5.97;;;;;;;;;;4848623;29;20069;-87
2022/02/01 08:21:52;;;;;;;8.40;5.82;;;;;;;;;;4813037;29;20496;-78
2022/02/01 08:24:20;;;;;;;13.95;6.60;;;;;;;;;;4806978;29;20842;-79
2022/02/01 08:26:48;;;;;;;12.95;7.18;;;;;;;;;;4804728;29;21331;-87
2022/02/01 08:29:17;;;;;;;13.93;6.00;;;;;;;;;;4823621;29;20504;-87
2022/02/01 08:31:50;;;;;;;20.83;7.97;;;;;;;;;;4826331;29;20069;-89
2022/02/01 08:34:19;;;;;;;18.05;8.07;;;;;;;;;;4811550;29;20058;-87
2022/02/01 08:36:48;;;;;;;16.10;7.47;;;;;;;;;;4839993;29;20061;-86
2022/02/01 08:39:16;;;;;;;8.50;6.70;;;;;;;;;;4808820;29;20050;-83
2022/02/01 08:41:44;;;;;;;12.75;7.07;;;;;;;;;;4837099;29;20395;-79
2022/02/01 08:44:15;;;;;;;11.13;5.97;;;;;;;;;;4825377;29;20511;-81
2022/02/01 08:46:43;;;;;;;6.38;4.97;;;;;;;;;;4826392;29;20507;-82
2022/02/01 08:49:12;;;;;;;10.15;5.72;;;;;;;;;;4823788;29;20546;-80
2022/02/01 08:51:43;;;;;;;8.55;5.75;;;;;;;;;;4825621;29;20054;-80
2022/02/01 08:54:21;;;;;;;23.95;5.95;;;;;;;;;;4819731;29;20057;-79
2022/02/01 08:59:36;;;;;;;7.57;5.85;;;;;;;;;;4846689;29;20042;-84
2022/02/01 09:02:04;;;;;;;8.63;5.10;;;;;;;;;;4824873;29;20050;-81
2022/02/01 09:04:32;;;;;;;10.38;5.65;;;;;;;;;;4841677;29;20057;-79
2022/02/01 09:07:01;;;;;;;9.68;4.82;;;;;;;;;;4826216;29;20058;-78
2022/02/01 09:09:31;;;;;;;9.32;6.63;;;;;;;;;;4825001;29;20057;-84
2022/02/01 09:12:00;;;;;;;18.10;4.68;;;;;;;;;;4808320;29;20058;-80
2022/02/01 09:14:28;;;;;;;6.68;4.95;;;;;;;;;;4823263;29;20054;-82
2022/02/01 09:16:56;;;;;;;9.07;5.50;;;;;;;;;;4822660;29;20496;-83
2022/02/01 09:19:24;;;;;;;12.18;7.28;;;;;;;;;;4806980;29;20063;-83
2022/02/01 09:21:52;;;;;;;15.93;5.82;;;;;;;;;;4825831;29;20058;-82
2022/02/01 09:24:21;;;;;;;17.88;7.15;;;;;;;;;;4826193;29;20053;-82
2022/02/01 09:26:49;;;;;;;5.70;4.07;;;;;;;;;;4828307;29;20061;-85
2022/02/01 09:29:20;;;;;;;21.17;6.35;;;;;;;;;;4831161;29;20641;-84
2022/02/01 09:31:49;;;;;;;19.73;7.90;;;;;;;;;;4826563;29;20058;-87
2022/02/01 09:34:17;;;;;;;10.80;6.07;;;;;;;;;;4825326;29;20056;-83
2022/02/01 09:36:49;;;;;;;9.50;6.70;;;;;;;;;;4841646;29;20508;-83
2022/02/01 09:39:17;;;;;;;9.98;5.97;;;;;;;;;;4810230;29;20408;-81
2022/02/01 09:41:46;;;;;;;15.43;6.30;;;;;;;;;;4825132;29;20061;-80
2022/02/01 09:44:14;;;;;;;11.68;4.47;;;;;;;;;;4824287;29;20045;-80
2022/02/01 09:46:43;;;;;;;11.68;6.10;;;;;;;;;;4810186;29;20531;-80
2022/02/01 09:49:12;;;;;;;14.55;6.88;;;;;;;;;;4809091;29;20089;-82
2022/02/01 09:51:40;;;;;;;10.30;5.30;;;;;;;;;;4836704;29;20046;-81
2022/02/01 09:54:21;;;;;;;6.63;5.20;;;;;;;;;;4808684;29;20073;-83
2022/02/01 09:56:51;;;;;;;15.07;5.88;;;;;;;;;;4841913;29;20058;-80
2022/02/01 09:59:36;;;;;;;12.10;4.75;;;;;;;;;;4817597;29;20062;-80
2022/02/01 10:02:16;;;;;;;5.50;5.00;;;;;;;;;;4799176;29;20066;-85
2022/02/01 10:04:48;;;;;;;11.50;5.53;;;;;;;;;;4848067;29;20041;-82
2022/02/01 10:07:16;;;;;;;6.53;5.05;;;;;;;;;;4835367;29;20057;-85
2022/02/01 10:09:56;;;;;;;7.50;4.75;;;;;;;;;;4800788;29;20444;-81
2022/02/01 10:12:27;;;;;;;10.93;5.63;;;;;;;;;;4825061;29;20056;-80
2022/02/01 10:17:47;;;;;;;18.95;4.80;;;;;;;;;;4821205;29;20489;-83
2022/02/01 10:20:16;;;;;;;13.95;3.47;;;;;;;;;;4833159;29;20048;-84
2022/02/01 10:22:45;;;;;;;15.32;4.97;;;;;;;;;;4843653;29;20057;-83
2022/02/01 10:25:29;;;;;;;9.88;4.88;;;;;;;;;;4859161;29;20652;-83
2022/02/01 10:27:58;;;;;;;5.55;3.97;;;;;;;;;;4848871;29;20056;-81
2022/02/01 10:30:49;;;;;;;4.97;4.47;;;;;;;;;;4868588;29;20053;-81
2022/02/01 10:36:15;;;;;;;7.43;4.47;;;;;;;;;;4844872;29;20442;-79
2022/02/01 10:38:43;;;;;;;9.45;3.38;;;;;;;;;;4850659;29;20049;-81
2022/02/01 10:41:12;;;;;;;11.85;5.20;;;;;;;;;;4850182;29;20053;-81
2022/02/01 10:43:40;;;;;;;9.68;4.70;;;;;;;;;;4864809;29;20051;-80
2022/02/01 10:46:10;;;;;;;2.72;1.85;;;;;;;;;;4863562;29;20052;-78
2022/02/01 10:48:38;;;;;;;4.35;3.45;;;;;;;;;;4866099;29;20064;-82
2022/02/01 10:51:12;;;;;;;8.57;4.30;;;;;;;;;;4850558;29;20037;-83
2022/02/01 10:53:41;;;;;;;6.75;3.22;;;;;;;;;;4860189;29;20045;-79
2022/02/01 10:56:11;;;;;;;17.70;3.63;;;;;;;;;;4839957;29;20061;-80
2022/02/01 10:58:39;;;;;;;10.35;2.50;;;;;;;;;;4826428;29;20053;-80
2022/02/01 11:01:11;;;;;;;6.05;3.90;;;;;;;;;;4826550;29;20583;-80
2022/02/01 11:03:46;;;;;;;9.52;4.93;;;;;;;;;;4818741;29;20049;-82
2022/02/01 11:06:15;;;;;;;13.90;4.20;;;;;;;;;;4830474;29;20053;-83
2022/02/01 11:08:46;;;;;;;8.70;3.58;;;;;;;;;;4829524;29;20042;-81
2022/02/01 11:11:23;;;;;;;11.35;2.45;;;;;;;;;;4825171;29;20050;-84
2022/02/01 11:13:52;;;;;;;1.45;1.45;;;;;;;;;;4848582;29;20506;-81
2022/02/01 11:16:21;;;;;;;12.15;3.15;;;;;;;;;;4839970;29;20073;-81
2022/02/01 11:18:55;;;;;;;6.97;3.72;;;;;;;;;;4823529;29;20069;-82
2022/02/01 11:21:24;;;;;;;3.58;3.35;;;;;;;;;;4808235;29;20065;-82
2022/02/01 11:26:20;;;;;;;6.88;2.55;;;;;;;;;;4840172;29;20050;-83
2022/02/01 11:30:01;;;;;;;1.83;1.73;;;;;;;;;;4822399;29;20058;-81
2022/02/01 11:31:47;;;;;;;17.63;4.07;;;;;;;;;;4833039;29;20062;-82
2022/02/01 11:34:16;;;;;;;11.50;3.70;;;;;;;;;;4849183;29;20065;-80
2022/02/01 11:36:44;;;;;;;6.05;4.00;;;;;;;;;;4834465;29;20062;-81
2022/02/01 11:39:14;;;;;;;6.22;2.63;;;;;;;;;;4823724;29;20053;-80
2022/02/01 11:41:43;;;;;;;6.47;3.28;;;;;;;;;;4835098;29;20419;-80
2022/02/01 11:44:28;;;;;;;2.40;2.03;;;;;;;;;;4834735;29;20046;-80
2022/02/01 11:47:04;;;;;;;7.82;1.77;;;;;;;;;;4823005;29;20786;-79
2022/02/01 11:49:32;;;;;;;5.10;2.38;;;;;;;;;;4840595;29;20049;-80
2022/02/01 11:52:11;;;;;;;7.47;2.30;;;;;;;;;;4836987;29;20128;-80
2022/02/01 11:54:42;;;;;;;1.70;1.60;;;;;;;;;;4829506;29;20132;-81
2022/02/01 11:57:11;;;;;;;5.03;2.22;;;;;;;;;;4869420;29;20053;-79
2022/02/01 11:59:54;;;;;;;3.15;2.88;;;;;;;;;;4842547;29;20061;-80
2022/02/01 12:02:34;;;;;;;7.20;2.72;;;;;;;;;;4876213;29;20052;-81
2022/02/01 12:05:08;;;;;;;6.60;2.67;;;;;;;;;;4876245;29;20053;-81
2022/02/01 12:14:40;;;;;;;3.50;3.30;;;;;;;;;;4861372;29;20480;-79
2022/02/01 12:17:09;;;;;;;2.22;1.60;;;;;;;;;;4842577;29;20049;-80
2022/02/01 12:19:38;;;;;;;5.93;1.85;;;;;;;;;;4812438;29;20488;-83
2022/02/01 12:22:31;;;;;;;2.65;2.08;;;;;;;;;;4830188;29;20064;-81
2022/02/01 12:25:04;;;;;;;4.53;2.00;;;;;;;;;;4811134;29;20057;-82
2022/02/01 12:27:36;;;;;;;3.47;3.13;;;;;;;;;;4829442;29;20065;-80
2022/02/01 12:30:05;;;;;;;8.95;3.55;;;;;;;;;;4826606;29;20408;-80
2022/02/01 12:32:34;;;;;;;4.97;1.73;;;;;;;;;;4841412;29;20088;-80
2022/02/01 12:35:04;;;;;;;6.53;3.08;;;;;;;;;;4841830;29;20056;-82
2022/02/01 12:37:33;;;;;;;2.25;2.00;;;;;;;;;;4841727;29;20424;-80
2022/02/01 12:40:09;;;;;;;4.00;2.42;;;;;;;;;;4825675;29;20049;-82
2022/02/01 12:42:49;;;;;;;2.60;2.40;;;;;;;;;;4843380;29;20499;-80
2022/02/01 12:48:13;;;;;;;4.22;3.75;;;;;;;;;;4829725;29;20042;-89
2022/02/01 12:55:24;;;;;;;8.18;2.03;;;;;;;;;;4756743;30;20066;-86
2022/02/01 12:58:19;;;;;;;1.83;1.73;;;;;;;;;;4712157;30;20055;-86
2022/02/01 13:00:51;;;;;;;3.45;3.00;;;;;;;;;;4725756;30;20051;-87
2022/02/01 13:03:19;;;;;;;5.50;3.08;;;;;;;;;;4769179;30;20067;-86
2022/02/01 13:05:55;;;;;;;9.07;2.80;;;;;;;;;;4739879;30;20141;-83
2022/02/01 13:20:42;;;;;;;10.00;2.60;;;;;;;;;;4785277;29;20052;-85
2022/02/01 13:26:34;;;;;;;4.07;2.60;;;;;;;;;;5220944;24;20062;-87
2022/02/01 13:29:31;;;;;;;2.78;2.58;;;;;;;;;;4826029;29;20077;-86
2022/02/01 13:36:29;;;;;;;4.43;3.00;;;;;;;;;;4712355;30;20038;-89
2022/02/01 13:47:00;;;;;;;2.40;2.20;;;;;;;;;;4853415;24;20058;-88
2022/02/01 13:50:31;;;;;;;3.58;1.90;;;;;;;;;;4779391;29;20051;-87
2022/02/01 13:57:37;;;;;;;3.15;2.22;;;;;;;;;;4692760;30;19929;-89
2022/02/01 14:00:26;;;;;;;2.60;2.40;;;;;;;;;;4763958;30;20075;-88
2022/02/01 14:03:58;;;;;;;1.75;1.65;;;;;;;;;;4747657;29;20071;-87
2022/02/01 14:34:15;;;;;;;;;;;;;;;;;;;;;
2022/02/01 14:36:49;;;;;;;2.97;2.17;;;;;;;;;;4828218;29;20042;-89
2022/02/01 14:44:56;;;;;;;2.25;1.95;;;;;;;;;;4825456;29;20046;-82
2022/02/01 14:47:24;;;;;;;8.52;2.13;;;;;;;;;;4824176;29;20051;-81
2022/02/01 14:49:52;;;;;;;3.90;1.98;;;;;;;;;;4831371;29;20050;-86
2022/02/01 14:52:20;;;;;;;6.18;2.10;;;;;;;;;;4806286;29;20042;-82
2022/02/01 14:54:52;;;;;;;2.20;1.70;;;;;;;;;;4807131;29;20054;-83
2022/02/01 15:06:48;;;;;;;3.90;2.00;;;;;;;;;;4824089;29;20542;-86
2022/02/01 15:14:17;;;;;;;2.65;2.40;;;;;;;;;;4808982;29;20069;-83
2022/02/01 15:16:53;;;;;;;1.80;1.67;;;;;;;;;;4818386;29;20530;-86
2022/02/01 15:19:31;;;;;;;2.70;1.55;;;;;;;;;;4808849;29;20050;-87
2022/02/01 15:25:04;;;;;;;1.83;1.73;;;;;;;;;;4809345;29;20049;-83
2022/02/01 15:27:33;;;;;;;1.50;1.50;;;;;;;;;;4839757;29;20058;-84
2022/02/01 15:30:08;;;;;;;1.45;1.35;;;;;;;;;;4792620;29;20054;-86
2022/02/01 15:32:51;;;;;;;1.80;1.67;;;;;;;;;;4800528;29;20053;-86
2022/02/01 15:35:20;;;;;;;1.50;1.40;;;;;;;;;;4838895;29;20065;-86
2022/02/01 15:37:52;;;;;;;2.83;1.92;;;;;;;;;;4818822;29;20050;-85
2022/02/01 15:55:18;;;;;;;2.33;1.15;;;;;;;;;;4823182;29;20053;-82
2022/02/01 15:57:50;;;;;;;2.28;1.92;;;;;;;;;;4840507;29;20057;-83
2022/02/01 16:00:27;;;;;;;1.77;1.67;;;;;;;;;;4828926;29;20536;-83
2022/02/01 16:03:00;;;;;;;1.05;1.05;;;;;;;;;;4816155;29;20317;-80
2022/02/01 16:05:31;;;;;;;1.80;1.70;;;;;;;;;;4818835;29;20052;-81
2022/02/01 16:08:01;;;;;;;1.43;1.43;;;;;;;;;;4853675;29;20053;-83
2022/02/01 16:10:38;;;;;;;1.40;1.27;;;;;;;;;;4823778;29;20053;-82
2022/02/01 16:13:22;;;;;;;1.02;1.02;;;;;;;;;;4811805;29;20049;-80
2022/02/01 16:15:53;;;;;;;1.45;1.42;;;;;;;;;;4821031;29;20053;-82
2022/02/01 16:18:21;;;;;;;1.85;1.75;;;;;;;;;;4808708;29;20050;-81
2022/02/01 16:20:49;;;;;;;1.83;1.30;;;;;;;;;;4839111;29;20080;-82
2022/02/01 16:23:24;;;;;;;2.65;2.13;;;;;;;;;;4825899;29;20093;-82
2022/02/01 16:25:52;;;;;;;1.42;1.42;;;;;;;;;;4839919;29;20104;-80
2022/02/01 16:28:21;;;;;;;1.42;1.42;;;;;;;;;;4839450;29;20049;-81
2022/02/01 16:30:49;;;;;;;1.20;1.20;;;;;;;;;;4840982;29;20482;-82
2022/02/01 16:33:17;;;;;;;1.65;1.55;;;;;;;;;;4809947;29;20049;-81
2022/02/01 16:35:45;;;;;;;3.15;1.60;;;;;;;;;;4822186;29;20062;-82
2022/02/01 16:38:13;;;;;;;1.20;1.20;;;;;;;;;;4807174;29;20062;-79
2022/02/01 16:40:59;;;;;;;1.20;1.10;;;;;;;;;;4824324;29;20049;-85
2022/02/01 16:43:57;;;;;;;5.63;0.98;;;;;;;;;;4801066;29;20068;-83
2022/02/01 16:46:28;;;;;;;1.60;1.50;;;;;;;;;;4833415;29;20497;-85
2022/02/01 16:48:56;;;;;;;1.20;1.20;;;;;;;;;;4819222;29;20492;-81
2022/02/01 16:51:25;;;;;;;1.40;1.30;;;;;;;;;;4807883;29;20049;-81
2022/02/01 16:53:57;;;;;;;1.10;1.10;;;;;;;;;;4824070;29;20058;-82
2022/02/01 16:56:50;;;;;;;1.45;1.45;;;;;;;;;;4817321;29;20053;-83
2022/02/01 16:59:26;;;;;;;1.48;1.45;;;;;;;;;;4828330;29;20049;-82
2022/02/01 17:01:56;;;;;;;1.55;1.45;;;;;;;;;;4828308;29;20054;-82
2022/02/01 17:04:26;;;;;;;1.00;1.00;;;;;;;;;;4813680;29;20372;-83
2022/02/01 17:06:56;;;;;;;1.33;1.23;;;;;;;;;;4844448;29;20507;-84
2022/02/01 17:09:35;;;;;;;1.25;1.25;;;;;;;;;;4823333;24;20057;-84
2022/02/01 17:12:27;;;;;;;4.45;1.33;;;;;;;;;;4801870;29;20055;-82
2022/02/01 17:15:07;;;;;;;1.15;1.08;;;;;;;;;;4789038;29;20069;-83
2022/02/01 17:23:15;;;;;;;1.75;1.65;;;;;;;;;;4804225;29;20063;-84
2022/02/01 17:25:50;;;;;;;1.25;1.15;;;;;;;;;;4790080;29;20055;-83
2022/02/01 17:28:21;;;;;;;1.37;1.37;;;;;;;;;;4811340;29;20058;-83
2022/02/01 17:30:53;;;;;;;1.20;1.17;;;;;;;;;;4804012;29;20051;-84
2022/02/01 17:33:31;;;;;;;0.98;0.98;;;;;;;;;;4805358;29;20047;-84
2022/02/01 17:36:19;;;;;;;2.58;1.42;;;;;;;;;;4789443;29;20055;-83
2022/02/01 17:39:06;;;;;;;1.10;1.10;;;;;;;;;;4800112;29;20046;-82
2022/02/01 17:41:35;;;;;;;0.95;0.95;;;;;;;;;;4799491;29;20459;-82
2022/02/01 17:44:07;;;;;;;1.10;1.10;;;;;;;;;;4804080;29;20063;-80
2022/02/01 17:46:44;;;;;;;19.55;3.33;;;;;;;;;;4805173;29;20051;-78
2022/02/01 17:49:16;;;;;;;1.38;1.38;;;;;;;;;;4803254;29;20045;-80
2022/02/01 17:52:13;;;;;;;1.05;1.05;;;;;;;;;;4803178;29;20051;-80
2022/02/01 17:54:46;;;;;;;1.00;1.00;;;;;;;;;;4804977;29;20050;-81
2022/02/01 17:57:16;;;;;;;2.78;1.27;;;;;;;;;;4801995;29;20457;-86
2022/02/01 17:59:50;;;;;;;2.55;1.30;;;;;;;;;;4797508;29;20067;-84
2022/02/01 18:02:21;;;;;;;0.80;0.80;;;;;;;;;;4792836;29;20039;-85
2022/02/01 18:04:50;;;;;;;1.13;1.13;;;;;;;;;;4799895;29;20791;-83
2022/02/01 18:07:38;;;;;;;1.00;1.00;;;;;;;;;;4780084;29;20043;-88
2022/02/01 18:10:10;;;;;;;1.60;1.10;;;;;;;;;;4799682;29;20076;-86
2022/02/01 18:15:40;;;;;;;1.52;1.52;;;;;;;;;;4818482;29;20043;-86
2022/02/01 18:18:41;;;;;;;2.85;1.45;;;;;;;;;;4804824;29;20054;-86
2022/02/01 18:21:17;;;;;;;1.75;1.38;;;;;;;;;;4784976;29;20062;-87
2022/02/01 18:23:50;;;;;;;1.00;1.00;;;;;;;;;;4785420;29;20051;-85
2022/02/01 18:31:23;;;;;;;;;;;;;;;;;;;;;
2022/02/01 18:34:38;;;;;;;1.38;1.27;;;;;;;;;;4750283;30;20051;-87
2022/02/01 18:37:13;;;;;;;1.00;1.00;;;;;;;;;;4751762;30;20063;-88
2022/02/01 18:39:57;;;;;;;1.40;1.30;;;;;;;;;;4779631;29;20071;-85
2022/02/01 18:56:13;;;;;;;1.35;1.25;;;;;;;;;;4769265;30;20498;-88
2022/02/01 18:58:54;;;;;;;1.52;1.45;;;;;;;;;;4752010;30;20144;-88
2022/02/01 19:13:18;;;;;;;1.30;1.20;;;;;;;;;;4750982;30;20052;-81